Oak Vale, Mississippi
Current Conditions -  °F | °C
As of 7:35 PM on Wednesday 22 Oct 2014 (Local Time) from K1R7 Reporting Station
Clear Clear  
Wind Chill: 63°   Ceiling: Unl
Heat Index: 63°   Visibility: 10mi
Dew Point: 52°   Wind: 3mph
Humidity: 68%   Direction: 10°N
Pressure: 30.1"   Gusts: NA
Location:  31.44°N, 89.96°W
Report Text: K1R7 230035Z AUTO 01003KT 10SM CLR 17/11 A3010 RMK AO2
Loading
Personal Weather Stations






























Interactive Weather Map
Tropical Storm Tracking
New forecast layout! Learn more

10-Day Weather Forecast

Advertisements
Track Severe Weather on mobile